Time;durP1;ratioP1;P1;durP2;ratioP2;P2;SDS_P1;SDS_P2;PMS_P1;PMS_P2;Temp;Humidity;BMP_temperature;BMP_pressure;BME280_temperature;BME280_humidity;BME280_pressure;Samples;Min_cycle;Max_cycle;Signal;HPM_P1;HPM_P2
2022/07/11 00:02:01;;;;;;;4.35;3.22;;;16.70;99.90;;;;;;5090542;28;20067;-72
2022/07/11 00:04:28;;;;;;;7.32;2.97;;;17.80;99.90;;;;;;5091702;28;20115;-72
2022/07/11 00:06:53;;;;;;;5.80;3.72;;;17.50;99.90;;;;;;5090274;28;20040;-71
2022/07/11 00:09:19;;;;;;;7.25;2.70;;;17.00;99.90;;;;;;5089820;28;20047;-71
2022/07/11 00:11:44;;;;;;;6.20;2.97;;;16.60;99.90;;;;;;5090126;28;20067;-71
2022/07/11 00:14:10;;;;;;;5.88;3.35;;;16.60;99.90;;;;;;5091362;28;20129;-71
2022/07/11 00:16:36;;;;;;;7.13;3.22;;;16.70;99.90;;;;;;5090336;28;20035;-71
2022/07/11 00:19:01;;;;;;;5.30;3.20;;;16.50;99.90;;;;;;5089982;28;20093;-71
2022/07/11 00:21:27;;;;;;;9.23;4.00;;;18.20;99.90;;;;;;5075540;28;20032;-72
2022/07/11 00:23:52;;;;;;;14.60;4.30;;;16.60;99.90;;;;;;5077135;28;20456;-71
2022/07/11 00:26:18;;;;;;;6.95;3.00;;;16.30;99.90;;;;;;5094999;28;20145;-72
2022/07/11 00:28:43;;;;;;;8.77;3.72;;;16.70;99.90;;;;;;5095222;28;20063;-71
2022/07/11 00:31:10;;;;;;;6.20;4.43;;;17.70;99.90;;;;;;5093482;28;20077;-71
2022/07/11 00:33:35;;;;;;;5.82;3.47;;;16.60;99.90;;;;;;5093957;28;20036;-72
2022/07/11 00:36:01;;;;;;;6.10;2.88;;;16.50;99.90;;;;;;5095108;28;20036;-72
2022/07/11 00:38:26;;;;;;;5.30;2.83;;;16.80;99.90;;;;;;5093848;28;20068;-71
2022/07/11 00:40:52;;;;;;;7.43;3.60;;;16.50;99.90;;;;;;5130315;22;20048;-69
2022/07/11 00:43:19;;;;;;;6.00;2.92;;;18.30;99.90;;;;;;5113676;28;20089;-69
2022/07/11 00:45:47;;;;;;;7.57;3.40;;;16.60;99.90;;;;;;5114799;28;20048;-69
2022/07/11 00:48:13;;;;;;;8.88;3.75;;;16.80;99.90;;;;;;5113722;28;20442;-70
2022/07/11 00:50:39;;;;;;;11.40;4.22;;;16.70;99.90;;;;;;5114591;28;20043;-69
2022/07/11 00:53:04;;;;;;;6.88;4.05;;;16.60;99.90;;;;;;5096413;28;20485;-69
2022/07/11 00:55:30;;;;;;;11.23;4.55;;;16.60;99.90;;;;;;5113564;28;20466;-69
2022/07/11 00:57:56;;;;;;;6.25;2.45;;;16.30;99.90;;;;;;5114646;28;20035;-69
2022/07/11 01:00:22;;;;;;;9.05;3.45;;;16.40;99.90;;;;;;5112864;28;20046;-70
2022/07/11 01:02:47;;;;;;;8.82;3.50;;;17.60;99.90;;;;;;5113142;28;20397;-69
2022/07/11 01:05:13;;;;;;;4.35;2.58;;;16.40;99.90;;;;;;5113262;28;20488;-69
2022/07/11 01:07:39;;;;;;;7.30;3.13;;;16.50;99.90;;;;;;5114521;28;20039;-69
2022/07/11 01:10:05;;;;;;;9.88;4.05;;;16.40;99.90;;;;;;5112878;28;20071;-69
2022/07/11 01:12:31;;;;;;;6.28;3.13;;;16.20;99.90;;;;;;5114671;28;20378;-69
2022/07/11 01:14:59;;;;;;;6.50;3.50;;;16.80;99.90;;;;;;5113211;28;20209;-69
2022/07/11 01:17:24;;;;;;;7.15;3.85;;;16.50;99.90;;;;;;5114894;28;20075;-69
2022/07/11 01:19:50;;;;;;;10.82;4.53;;;16.10;99.90;;;;;;5114620;28;20075;-69
2022/07/11 01:22:19;;;;;;;9.85;4.20;;;16.30;99.90;;;;;;5114578;28;20458;-69
2022/07/11 01:24:45;;;;;;;5.55;2.92;;;16.30;99.90;;;;;;5113503;28;20048;-69
2022/07/11 01:27:12;;;;;;;7.22;3.25;;;16.50;99.90;;;;;;5114104;28;20038;-69
2022/07/11 01:29:38;;;;;;;9.65;3.50;;;16.20;99.90;;;;;;5114015;28;20043;-69
2022/07/11 01:32:04;;;;;;;8.63;3.45;;;16.30;99.90;;;;;;5113116;28;20091;-69
2022/07/11 01:34:30;;;;;;;8.73;3.33;;;16.40;99.90;;;;;;5114060;28;20043;-69
2022/07/11 01:36:56;;;;;;;6.63;3.20;;;16.50;99.90;;;;;;5112642;28;20042;-69
2022/07/11 01:39:21;;;;;;;10.57;3.85;;;16.30;99.90;;;;;;5112395;28;20067;-69
2022/07/11 01:41:47;;;;;;;6.82;2.75;;;16.90;99.90;;;;;;5113673;28;20084;-69
2022/07/11 01:44:12;;;;;;;6.10;3.15;;;16.30;99.90;;;;;;5112391;28;20126;-69
2022/07/11 01:46:38;;;;;;;6.43;3.90;;;16.00;99.90;;;;;;5113769;28;20071;-69
2022/07/11 01:49:03;;;;;;;10.77;4.30;;;17.50;99.90;;;;;;5112091;28;20063;-69
2022/07/11 01:51:29;;;;;;;5.22;3.40;;;16.30;99.90;;;;;;5112443;28;20130;-69
2022/07/11 01:53:55;;;;;;;7.43;2.95;;;16.40;99.90;;;;;;5112390;28;20039;-69
2022/07/11 01:56:22;;;;;;;7.93;4.07;;;16.10;99.90;;;;;;5113438;28;20040;-69
2022/07/11 01:58:48;;;;;;;13.52;3.50;;;16.50;99.90;;;;;;5112421;28;20398;-69
2022/07/11 02:01:14;;;;;;;8.10;3.53;;;17.30;99.90;;;;;;5112060;28;20089;-69
2022/07/11 02:03:40;;;;;;;10.10;3.35;;;16.20;99.90;;;;;;5113605;28;20447;-69
2022/07/11 02:06:06;;;;;;;8.20;3.03;;;16.40;99.90;;;;;;5112074;28;20035;-69
2022/07/11 02:08:32;;;;;;;6.97;3.17;;;16.40;99.90;;;;;;5111981;28;20067;-69
2022/07/11 02:10:57;;;;;;;7.18;2.88;;;16.40;99.90;;;;;;5112821;28;20036;-68
2022/07/11 02:13:23;;;;;;;5.88;2.78;;;16.30;99.90;;;;;;5113159;28;20034;-69
2022/07/11 02:15:50;;;;;;;10.32;3.55;;;16.20;99.90;;;;;;5111988;28;20044;-69
2022/07/11 02:18:17;;;;;;;13.35;3.75;;;16.40;99.90;;;;;;5111804;28;20051;-68
2022/07/11 02:20:45;;;;;;;8.13;2.88;;;17.10;99.90;;;;;;5111459;28;20050;-68
2022/07/11 02:23:12;;;;;;;7.45;3.20;;;16.10;99.90;;;;;;5111792;28;20366;-69
2022/07/11 02:25:40;;;;;;;8.55;3.30;;;16.00;99.90;;;;;;5111719;28;20122;-69
2022/07/11 02:28:08;;;;;;;8.07;3.55;;;15.90;99.90;;;;;;5113409;28;20043;-69
2022/07/11 02:30:34;;;;;;;6.75;2.78;;;16.40;99.90;;;;;;5112910;28;20040;-69
2022/07/11 02:33:00;;;;;;;8.45;3.15;;;16.40;99.90;;;;;;5111899;28;20040;-68
2022/07/11 02:35:26;;;;;;;6.97;3.15;;;16.10;99.90;;;;;;5111543;28;20050;-69
2022/07/11 02:37:52;;;;;;;7.22;3.83;;;16.20;99.90;;;;;;5112803;28;20038;-69
2022/07/11 02:40:18;;;;;;;6.63;4.00;;;16.40;99.90;;;;;;5111163;28;20080;-69
2022/07/11 02:42:43;;;;;;;10.07;5.28;;;16.20;99.90;;;;;;5112878;28;20516;-69
2022/07/11 02:45:10;;;;;;;7.82;3.95;;;16.20;99.90;;;;;;5112634;28;20043;-69
2022/07/11 02:47:38;;;;;;;10.40;6.18;;;15.90;99.90;;;;;;5111265;28;20035;-69
2022/07/11 02:50:05;;;;;;;8.45;4.90;;;16.10;99.90;;;;;;5112233;28;20036;-69
2022/07/11 02:52:31;;;;;;;6.40;3.85;;;15.90;99.90;;;;;;5111199;28;20151;-69
2022/07/11 02:54:57;;;;;;;7.13;3.38;;;16.20;99.90;;;;;;5111063;28;20488;-69
2022/07/11 02:57:22;;;;;;;7.55;3.65;;;16.50;99.90;;;;;;5111095;28;20043;-69
2022/07/11 02:59:48;;;;;;;8.30;3.78;;;16.20;99.90;;;;;;5110669;28;20047;-69
2022/07/11 03:02:13;;;;;;;7.15;4.25;;;16.10;99.90;;;;;;5094065;28;20038;-69
2022/07/11 03:04:39;;;;;;;5.25;3.65;;;16.10;99.90;;;;;;5094012;28;20036;-69
2022/07/11 03:07:05;;;;;;;5.20;3.60;;;16.10;99.90;;;;;;5112274;28;20031;-70
2022/07/11 03:09:30;;;;;;;6.13;2.65;;;16.10;99.90;;;;;;5111805;28;20039;-69
2022/07/11 03:11:56;;;;;;;5.22;2.90;;;16.00;99.90;;;;;;5112350;28;20039;-69
2022/07/11 03:14:21;;;;;;;5.97;2.35;;;17.10;99.90;;;;;;5110845;28;20130;-69
2022/07/11 03:16:47;;;;;;;7.55;3.10;;;16.20;99.90;;;;;;5110764;28;20031;-69
2022/07/11 03:19:13;;;;;;;5.22;2.85;;;16.00;99.90;;;;;;5111752;28;20048;-69
2022/07/11 03:21:38;;;;;;;4.53;2.47;;;16.20;99.90;;;;;;5112068;28;20062;-69
2022/07/11 03:24:04;;;;;;;5.95;2.83;;;16.00;99.90;;;;;;5111861;28;20035;-69
2022/07/11 03:26:30;;;;;;;7.35;3.03;;;16.00;99.90;;;;;;5110628;28;20039;-69
2022/07/11 03:28:55;;;;;;;3.80;2.30;;;15.90;99.90;;;;;;5110333;28;20032;-68
2022/07/11 03:31:21;;;;;;;5.32;2.92;;;16.00;99.90;;;;;;5111796;28;20062;-68
2022/07/11 03:33:47;;;;;;;4.07;2.47;;;16.00;99.90;;;;;;5110417;28;20040;-69
2022/07/11 03:36:12;;;;;;;5.35;2.70;;;16.20;99.90;;;;;;5111772;28;20051;-69
2022/07/11 03:38:38;;;;;;;5.88;3.60;;;16.10;99.90;;;;;;5111624;28;20092;-69
2022/07/11 03:41:04;;;;;;;8.35;3.88;;;16.00;99.90;;;;;;5110118;28;20489;-69
2022/07/11 03:43:30;;;;;;;6.75;3.85;;;16.00;99.90;;;;;;5110720;28;20067;-69
2022/07/11 03:45:56;;;;;;;6.25;3.92;;;16.10;99.90;;;;;;5110834;28;20049;-69
2022/07/11 03:48:22;;;;;;;5.75;3.50;;;15.90;99.90;;;;;;5112252;28;20088;-69
2022/07/11 03:50:48;;;;;;;6.00;2.70;;;16.00;99.90;;;;;;5110175;28;20123;-69
2022/07/11 03:53:14;;;;;;;7.05;3.00;;;16.00;99.90;;;;;;5111628;28;20370;-69
2022/07/11 03:55:40;;;;;;;5.97;3.17;;;15.90;99.90;;;;;;5111747;28;20054;-69
2022/07/11 03:58:05;;;;;;;6.05;3.10;;;16.60;99.90;;;;;;5115818;28;20554;-69
2022/07/11 04:00:32;;;;;;;9.57;4.05;;;16.10;99.90;;;;;;5115521;28;20027;-68
2022/07/11 04:02:57;;;;;;;8.02;4.40;;;15.90;99.90;;;;;;5114811;28;20062;-68
2022/07/11 04:05:23;;;;;;;6.57;3.25;;;16.10;99.90;;;;;;5114389;28;20493;-68
2022/07/11 04:07:49;;;;;;;5.35;3.42;;;16.10;99.90;;;;;;5115607;28;20499;-68
2022/07/11 04:10:17;;;;;;;4.18;2.85;;;16.10;99.90;;;;;;5113902;28;20040;-68
2022/07/11 04:12:43;;;;;;;5.75;3.70;;;16.10;99.90;;;;;;5115685;28;20223;-68
2022/07/11 04:15:10;;;;;;;5.40;3.00;;;16.10;99.90;;;;;;5114188;28;20036;-68
2022/07/11 04:17:35;;;;;;;6.05;3.20;;;16.10;99.90;;;;;;5114518;28;20397;-69
2022/07/11 04:20:01;;;;;;;4.25;3.13;;;15.90;99.90;;;;;;5115084;28;20046;-69
2022/07/11 04:22:27;;;;;;;4.22;2.05;;;16.10;99.90;;;;;;5114051;28;20039;-69
2022/07/11 04:24:52;;;;;;;4.22;2.40;;;15.70;99.90;;;;;;5115524;28;20085;-69
2022/07/11 04:27:18;;;;;;;5.53;2.78;;;15.90;99.90;;;;;;5097167;28;20038;-69
2022/07/11 04:29:43;;;;;;;6.65;2.67;;;15.90;99.90;;;;;;5114896;28;20485;-69
2022/07/11 04:32:09;;;;;;;5.70;2.42;;;16.10;99.90;;;;;;5115256;28;20038;-69
2022/07/11 04:34:35;;;;;;;4.18;2.55;;;15.70;99.90;;;;;;5113737;28;20043;-68
2022/07/11 04:37:00;;;;;;;5.18;3.30;;;16.20;99.90;;;;;;5113776;28;20043;-69
2022/07/11 04:39:26;;;;;;;5.72;3.83;;;16.10;99.90;;;;;;5113197;28;20035;-68
2022/07/11 04:41:52;;;;;;;4.78;2.28;;;16.30;99.90;;;;;;5114050;28;20421;-68
2022/07/11 04:44:17;;;;;;;2.83;1.77;;;16.30;99.90;;;;;;5113605;28;20036;-68
2022/07/11 04:46:43;;;;;;;6.63;1.83;;;16.00;99.90;;;;;;5113913;28;20062;-68
2022/07/11 04:49:08;;;;;;;3.63;2.25;;;15.90;99.90;;;;;;5113355;28;20047;-68
2022/07/11 04:51:36;;;;;;;5.85;2.53;;;16.50;99.90;;;;;;5114711;28;20058;-68
2022/07/11 04:54:02;;;;;;;3.35;2.33;;;16.10;99.90;;;;;;5114934;28;20052;-69
2022/07/11 04:56:27;;;;;;;7.32;2.33;;;15.90;99.90;;;;;;5114726;28;20036;-69
2022/07/11 04:58:53;;;;;;;5.13;2.78;;;16.30;99.90;;;;;;5114675;28;20046;-68
2022/07/11 05:01:19;;;;;;;4.15;2.42;;;16.40;99.90;;;;;;5114616;28;20465;-68
2022/07/11 05:03:45;;;;;;;3.30;2.22;;;16.10;99.90;;;;;;5113293;28;20044;-68
2022/07/11 05:06:11;;;;;;;3.45;2.00;;;16.00;99.90;;;;;;5114206;28;20489;-68
2022/07/11 05:08:36;;;;;;;3.33;2.40;;;16.10;99.90;;;;;;5113692;28;20035;-68
2022/07/11 05:11:03;;;;;;;5.03;1.90;;;16.10;99.90;;;;;;5114298;28;20521;-69
2022/07/11 05:13:29;;;;;;;5.03;2.10;;;15.90;99.90;;;;;;5113100;28;20075;-69
2022/07/11 05:15:55;;;;;;;5.88;3.10;;;16.40;99.90;;;;;;5112892;28;20078;-68
2022/07/11 05:18:20;;;;;;;3.45;2.05;;;16.20;99.90;;;;;;5113070;28;20035;-69
2022/07/11 05:20:46;;;;;;;2.92;1.60;;;16.10;99.90;;;;;;5112700;28;20035;-69
2022/07/11 05:23:11;;;;;;;6.15;2.17;;;16.30;99.90;;;;;;5112805;28;20036;-69
2022/07/11 05:25:37;;;;;;;5.60;2.22;;;16.60;99.90;;;;;;5112699;28;20040;-68
2022/07/11 05:28:02;;;;;;;3.83;1.95;;;16.50;99.90;;;;;;5112701;28;20046;-69
2022/07/11 05:30:28;;;;;;;5.18;2.45;;;16.40;99.90;;;;;;5113755;28;20157;-68
2022/07/11 05:32:54;;;;;;;4.07;1.65;;;16.30;99.90;;;;;;5114062;28;20036;-68
2022/07/11 05:35:19;;;;;;;7.20;2.50;;;16.30;99.90;;;;;;5112563;28;20481;-69
2022/07/11 05:37:45;;;;;;;3.13;1.73;;;17.30;99.90;;;;;;5112648;28;20036;-68
2022/07/11 05:40:11;;;;;;;2.65;1.52;;;16.30;99.90;;;;;;5111995;28;20501;-69
2022/07/11 05:42:36;;;;;;;4.25;2.17;;;16.70;99.90;;;;;;5112603;28;20164;-68
2022/07/11 05:45:02;;;;;;;9.10;2.65;;;17.70;99.90;;;;;;5113796;28;20046;-69
2022/07/11 05:47:28;;;;;;;4.22;1.30;;;16.60;99.90;;;;;;5112406;28;20044;-69
2022/07/11 05:49:53;;;;;;;3.65;1.40;;;16.50;99.90;;;;;;5113740;28;20032;-68
2022/07/11 05:52:19;;;;;;;2.08;1.20;;;17.10;99.90;;;;;;5113883;28;20138;-67
2022/07/11 05:54:44;;;;;;;2.08;0.98;;;16.50;99.90;;;;;;5095195;28;20047;-68
2022/07/11 05:57:10;;;;;;;2.70;1.45;;;16.70;99.90;;;;;;5112430;28;20113;-68
2022/07/11 05:59:38;;;;;;;3.50;2.40;;;16.40;99.90;;;;;;5113171;28;20430;-68
2022/07/11 06:02:03;;;;;;;3.70;1.65;;;16.40;99.90;;;;;;5112458;28;20096;-67
2022/07/11 06:04:29;;;;;;;3.42;1.98;;;16.60;99.90;;;;;;5112219;28;20039;-67
2022/07/11 06:06:54;;;;;;;3.22;1.88;;;17.60;99.90;;;;;;5113464;28;20114;-68
2022/07/11 06:09:20;;;;;;;3.03;2.42;;;16.80;99.90;;;;;;5111603;28;20065;-67
2022/07/11 06:11:46;;;;;;;4.65;2.67;;;17.50;99.90;;;;;;5113144;28;20435;-67
2022/07/11 06:14:11;;;;;;;3.75;2.72;;;16.80;99.90;;;;;;5113180;28;20044;-67
2022/07/11 06:16:37;;;;;;;6.00;2.17;;;16.80;99.90;;;;;;5113167;28;20032;-68
2022/07/11 06:19:03;;;;;;;3.30;0.82;;;17.00;99.90;;;;;;5110509;28;20051;-66
2022/07/11 06:21:28;;;;;;;4.63;2.05;;;18.00;99.90;;;;;;5094407;28;20115;-68
2022/07/11 06:23:54;;;;;;;3.40;1.85;;;16.80;99.90;;;;;;5106722;28;20063;-68
2022/07/11 06:26:21;;;;;;;2.90;1.67;;;17.50;99.90;;;;;;5108464;28;20047;-68
2022/07/11 06:28:46;;;;;;;3.78;1.63;;;16.80;99.90;;;;;;5099615;28;20501;-68
2022/07/11 06:31:13;;;;;;;2.67;1.17;;;16.70;99.90;;;;;;5105367;28;20038;-68
2022/07/11 06:33:39;;;;;;;2.40;1.60;;;16.70;99.90;;;;;;5106772;28;20034;-68
2022/07/11 06:36:06;;;;;;;3.05;1.52;;;17.10;99.90;;;;;;5106762;28;20123;-68
2022/07/11 06:38:32;;;;;;;2.88;1.63;;;16.60;99.90;;;;;;5117510;27;20040;-68
2022/07/11 06:40:58;;;;;;;3.03;1.50;;;16.90;99.90;;;;;;5089626;22;20072;-71
2022/07/11 06:43:24;;;;;;;1.95;1.45;;;17.20;99.90;;;;;;5036106;28;20051;-71
2022/07/11 06:45:50;;;;;;;2.72;1.50;;;17.90;99.90;;;;;;5039199;28;20045;-71
2022/07/11 06:48:17;;;;;;;3.47;2.10;;;16.90;99.90;;;;;;5033670;28;20041;-70
2022/07/11 06:50:42;;;;;;;4.28;2.58;;;17.90;99.90;;;;;;5022614;28;20047;-70
2022/07/11 06:53:08;;;;;;;2.65;1.92;;;17.10;99.90;;;;;;5049101;28;20409;-72
2022/07/11 06:55:34;;;;;;;3.88;1.40;;;17.20;99.90;;;;;;5030595;28;20041;-70
2022/07/11 06:58:00;;;;;;;3.20;1.50;;;17.20;99.90;;;;;;5040805;28;20044;-72
2022/07/11 07:00:27;;;;;;;3.67;1.95;;;17.50;99.90;;;;;;5030228;28;20073;-71
2022/07/11 07:02:56;;;;;;;1.83;1.00;;;18.70;99.90;;;;;;5030555;28;20524;-71
2022/07/11 07:05:26;;;;;;;3.50;1.60;;;17.20;99.90;;;;;;5030438;28;20041;-72
2022/07/11 07:07:52;;;;;;;1.00;0.80;;;17.30;99.90;;;;;;5030346;28;20048;-71
2022/07/11 07:10:18;;;;;;;2.40;1.10;;;17.40;99.90;;;;;;5030094;28;20051;-71
2022/07/11 07:12:44;;;;;;;1.98;0.65;;;17.20;99.90;;;;;;5030371;28;20049;-70
2022/07/11 07:15:11;;;;;;;1.75;0.90;;;17.20;99.90;;;;;;5013884;28;20059;-71
2022/07/11 07:17:37;;;;;;;3.58;2.30;;;18.70;99.90;;;;;;5030422;28;20103;-73
2022/07/11 07:20:04;;;;;;;3.83;1.50;;;17.30;99.90;;;;;;5029939;28;20044;-72
2022/07/11 07:22:30;;;;;;;6.05;1.00;;;17.40;99.90;;;;;;5030119;28;20044;-72
2022/07/11 07:24:56;;;;;;;0.82;0.60;;;17.40;99.90;;;;;;5014064;28;20506;-73
2022/07/11 07:27:22;;;;;;;0.82;0.50;;;17.20;99.90;;;;;;5048090;28;20083;-72
2022/07/11 07:29:48;;;;;;;1.40;0.50;;;17.20;99.90;;;;;;5013017;28;20072;-73
2022/07/11 07:32:14;;;;;;;2.28;0.80;;;17.10;99.90;;;;;;5030098;28;20041;-74
2022/07/11 07:34:39;;;;;;;2.13;1.17;;;18.90;99.90;;;;;;5048366;28;20594;-73
2022/07/11 07:37:05;;;;;;;4.10;1.33;;;17.50;99.90;;;;;;5030075;28;20506;-73
2022/07/11 07:39:31;;;;;;;1.75;1.10;;;18.40;99.90;;;;;;5029422;28;20037;-72
2022/07/11 07:41:56;;;;;;;0.90;0.40;;;17.40;99.90;;;;;;5029687;28;20186;-71
2022/07/11 07:44:22;;;;;;;0.88;0.60;;;18.30;99.90;;;;;;5010636;28;20064;-73
2022/07/11 07:46:47;;;;;;;0.75;0.50;;;17.60;99.90;;;;;;5016823;28;20383;-73
2022/07/11 07:49:13;;;;;;;1.00;0.70;;;18.90;99.90;;;;;;5035930;28;20064;-71
2022/07/11 07:51:38;;;;;;;0.75;0.50;;;17.90;99.90;;;;;;5050229;28;20056;-72
2022/07/11 07:54:04;;;;;;;1.92;0.63;;;17.60;99.90;;;;;;5053035;28;20426;-71
2022/07/11 07:56:30;;;;;;;1.88;0.50;;;17.40;99.90;;;;;;5038192;28;20044;-72
2022/07/11 07:58:56;;;;;;;0.70;0.40;;;18.50;99.90;;;;;;5034268;28;20033;-73
2022/07/11 08:01:38;;;;;;;1.08;0.38;;;17.80;99.90;;;;;;5054193;28;20048;-71
2022/07/11 08:04:09;;;;;;;0.77;0.30;;;17.50;99.90;;;;;;5033463;28;20174;-72
2022/07/11 08:06:36;;;;;;;0.25;0.20;;;18.00;99.90;;;;;;5031263;28;20037;-72
2022/07/11 08:09:03;;;;;;;2.00;0.43;;;17.90;99.90;;;;;;5015541;28;20037;-71
2022/07/11 08:11:28;;;;;;;0.93;0.30;;;17.70;99.90;;;;;;5030842;28;20033;-72
2022/07/11 08:13:54;;;;;;;1.92;0.50;;;18.10;99.90;;;;;;5019690;28;20525;-73
2022/07/11 08:16:20;;;;;;;0.82;0.63;;;17.60;99.90;;;;;;5015360;28;20040;-70
2022/07/11 08:18:45;;;;;;;2.53;1.75;;;17.90;99.90;;;;;;5031870;28;20656;-71
2022/07/11 08:21:11;;;;;;;0.98;0.47;;;18.00;99.90;;;;;;5047742;28;20417;-71
2022/07/11 08:23:37;;;;;;;1.83;0.40;;;17.80;99.90;;;;;;5030796;28;20031;-71
2022/07/11 08:26:03;;;;;;;0.52;0.30;;;18.10;99.90;;;;;;5032278;28;20033;-71
2022/07/11 08:28:29;;;;;;;0.47;0.43;;;18.30;99.90;;;;;;5050696;28;20049;-72
2022/07/11 08:30:54;;;;;;;1.75;0.82;;;19.60;99.90;;;;;;5048615;28;20569;-71
2022/07/11 08:33:20;;;;;;;0.30;0.30;;;20.20;99.90;;;;;;5050333;28;20044;-71
2022/07/11 08:35:45;;;;;;;1.23;0.25;;;18.20;99.90;;;;;;5050289;28;20095;-71
2022/07/11 08:38:12;;;;;;;0.20;0.20;;;18.50;99.90;;;;;;5045516;28;20467;-71
2022/07/11 08:40:40;;;;;;;0.70;0.20;;;19.20;99.90;;;;;;5048567;28;20033;-72
2022/07/11 08:43:17;;;;;;;0.38;0.22;;;18.20;99.90;;;;;;5053212;28;20033;-71
2022/07/11 08:45:42;;;;;;;1.17;0.20;;;18.50;99.90;;;;;;5036549;28;20556;-71
2022/07/11 08:48:09;;;;;;;0.20;0.20;;;19.40;99.90;;;;;;5052777;28;20036;-71
2022/07/11 08:50:35;;;;;;;0.43;0.43;;;18.80;99.90;;;;;;5050868;28;20080;-72
2022/07/11 08:53:03;;;;;;;2.60;0.98;;;18.90;99.90;;;;;;5051455;28;20091;-72
2022/07/11 08:55:28;;;;;;;2.67;0.70;;;19.90;99.90;;;;;;5052981;28;20041;-71
2022/07/11 08:57:54;;;;;;;3.33;1.80;;;19.20;99.90;;;;;;5053154;28;20029;-71
2022/07/11 09:00:19;;;;;;;0.57;0.50;;;19.00;99.90;;;;;;5054032;28;20117;-71
2022/07/11 09:02:46;;;;;;;0.52;0.47;;;19.40;99.90;;;;;;5050637;28;20065;-71
2022/07/11 09:05:12;;;;;;;1.65;0.30;;;18.90;99.90;;;;;;5053702;28;20112;-71
2022/07/11 09:07:46;;;;;;;1.08;0.50;;;18.90;99.90;;;;;;5035789;28;20116;-72
2022/07/11 09:10:13;;;;;;;1.15;0.40;;;18.70;99.90;;;;;;5033203;28;20037;-71
2022/07/11 09:12:59;;;;;;;0.80;0.50;;;18.90;99.90;;;;;;5069292;28;20037;-71
2022/07/11 09:15:42;;;;;;;2.80;1.02;;;18.70;99.90;;;;;;5018813;28;20048;-71
2022/07/11 09:18:34;;;;;;;1.92;1.35;;;18.60;99.90;;;;;;5053792;28;20033;-71
2022/07/11 09:26:39;;;;;;;1.42;0.60;;;18.90;99.90;;;;;;5053377;28;20041;-71
2022/07/11 09:29:16;;;;;;;0.65;0.38;;;20.00;99.90;;;;;;5052882;28;20116;-71
2022/07/11 09:31:44;;;;;;;0.70;0.43;;;18.80;99.90;;;;;;5035289;28;20127;-71
2022/07/11 09:34:18;;;;;;;1.17;0.60;;;18.60;99.90;;;;;;5018854;28;20037;-71
2022/07/11 09:36:54;;;;;;;0.60;0.60;;;18.70;99.90;;;;;;5053667;28;20052;-71
2022/07/11 09:39:22;;;;;;;0.60;0.38;;;18.60;99.90;;;;;;5035812;28;20422;-71
2022/07/11 09:41:49;;;;;;;0.45;0.20;;;18.50;99.90;;;;;;5053396;28;20068;-71
2022/07/11 09:44:19;;;;;;;1.17;0.60;;;20.90;99.90;;;;;;5052402;28;20048;-71
2022/07/11 09:46:47;;;;;;;1.83;0.82;;;18.90;99.90;;;;;;5052817;28;20041;-71
2022/07/11 09:49:28;;;;;;;1.13;0.40;;;18.50;99.90;;;;;;5034935;28;20398;-71
2022/07/11 09:51:56;;;;;;;1.05;0.45;;;20.40;99.90;;;;;;5050890;28;20041;-71
2022/07/11 09:54:21;;;;;;;3.10;0.50;;;19.70;99.90;;;;;;5038640;28;20057;-72
2022/07/11 09:56:51;;;;;;;0.65;0.40;;;18.90;99.90;;;;;;5016036;28;20143;-71
2022/07/11 09:59:18;;;;;;;2.47;1.65;;;18.70;99.90;;;;;;5032610;28;20060;-70
2022/07/11 10:01:44;;;;;;;3.22;0.88;;;19.10;99.90;;;;;;5035297;28;20036;-71
2022/07/11 10:04:11;;;;;;;1.67;0.38;;;19.30;99.90;;;;;;5051951;28;20047;-71
2022/07/11 10:06:38;;;;;;;1.00;0.45;;;19.60;99.90;;;;;;5034287;28;20029;-70
2022/07/11 10:09:08;;;;;;;1.02;0.65;;;19.60;99.90;;;;;;5047047;28;20524;-71
2022/07/11 10:11:35;;;;;;;1.00;0.70;;;20.00;99.90;;;;;;5052910;28;20192;-71
2022/07/11 10:14:02;;;;;;;0.57;0.50;;;19.50;99.90;;;;;;5029275;28;20036;-71
2022/07/11 10:16:35;;;;;;;3.42;1.92;;;20.70;99.90;;;;;;5052267;28;20039;-71
2022/07/11 10:19:26;;;;;;;0.43;0.20;;;19.70;99.90;;;;;;5066803;28;20440;-71
2022/07/11 10:22:15;;;;;;;0.30;0.30;;;19.40;99.90;;;;;;5033986;28;20040;-71
2022/07/11 10:24:53;;;;;;;0.20;0.20;;;19.20;99.90;;;;;;5050115;28;20386;-69
2022/07/11 10:27:43;;;;;;;1.05;0.47;;;19.30;99.90;;;;;;5032075;28;20049;-70
2022/07/11 10:30:09;;;;;;;0.65;0.40;;;19.30;99.90;;;;;;5033684;28;20047;-71
2022/07/11 10:32:58;;;;;;;0.82;0.30;;;19.50;99.90;;;;;;5051218;28;20505;-71
2022/07/11 10:35:23;;;;;;;1.00;0.40;;;19.40;99.90;;;;;;5033485;28;20636;-71
2022/07/11 10:37:52;;;;;;;1.40;0.30;;;19.30;99.90;;;;;;5052287;28;20024;-71
2022/07/11 10:40:47;;;;;;;1.38;0.20;;;19.50;99.90;;;;;;5011877;28;20079;-70
2022/07/11 10:43:15;;;;;;;0.55;0.45;;;19.90;99.90;;;;;;5047340;28;20029;-71
2022/07/11 10:46:03;;;;;;;0.68;0.32;;;19.80;99.90;;;;;;5045611;28;20579;-71
2022/07/11 10:48:31;;;;;;;0.30;0.30;;;19.60;99.90;;;;;;5027089;28;20095;-71
2022/07/11 10:51:18;;;;;;;1.80;0.30;;;19.70;99.90;;;;;;5009521;28;20476;-72
2022/07/11 10:53:49;;;;;;;1.83;0.28;;;19.50;99.90;;;;;;5031425;28;20041;-71
2022/07/11 10:56:20;;;;;;;0.88;0.30;;;20.70;99.90;;;;;;5033163;28;20040;-71
2022/07/11 10:59:17;;;;;;;0.30;0.25;;;19.60;99.90;;;;;;5029834;28;20049;-71
2022/07/11 11:02:11;;;;;;;0.28;0.22;;;19.70;99.90;;;;;;5046016;28;20087;-71
2022/07/11 11:04:48;;;;;;;1.50;0.30;;;19.50;99.90;;;;;;5048328;28;20451;-71
2022/07/11 11:07:44;;;;;;;0.45;0.30;;;20.20;99.90;;;;;;5029355;28;20094;-71
2022/07/11 11:10:18;;;;;;;2.53;0.70;;;20.00;99.90;;;;;;5013929;28;20049;-71
2022/07/11 11:13:14;;;;;;;0.65;0.47;;;19.90;99.90;;;;;;5041022;28;20117;-70
2022/07/11 11:15:41;;;;;;;0.63;0.38;;;19.90;99.90;;;;;;5045113;28;20045;-71
2022/07/11 11:18:25;;;;;;;2.00;0.80;;;20.80;99.90;;;;;;5030065;28;20044;-72
2022/07/11 11:21:02;;;;;;;0.55;0.30;;;20.40;99.90;;;;;;5051816;28;20403;-70
2022/07/11 11:23:29;;;;;;;0.32;0.30;;;20.50;99.90;;;;;;5030371;28;20064;-69
2022/07/11 11:26:04;;;;;;;0.60;0.40;;;21.20;99.90;;;;;;5014282;28;20045;-73
2022/07/11 11:28:29;;;;;;;0.20;0.20;;;20.10;99.90;;;;;;5048567;28;20045;-72
2022/07/11 11:31:00;;;;;;;0.30;0.30;;;21.30;99.90;;;;;;5029659;28;20048;-71
2022/07/11 11:33:27;;;;;;;1.98;0.50;;;20.20;99.90;;;;;;5050726;28;20037;-71
2022/07/11 11:36:08;;;;;;;2.70;0.63;;;21.70;99.90;;;;;;5037097;28;20045;-70
2022/07/11 11:38:35;;;;;;;0.35;0.30;;;20.10;99.90;;;;;;5040343;28;20124;-72
2022/07/11 11:41:01;;;;;;;1.77;0.38;;;20.20;99.90;;;;;;5044432;28;20037;-71
2022/07/11 11:43:27;;;;;;;0.60;0.40;;;20.30;99.90;;;;;;5055668;28;20449;-72
2022/07/11 11:45:54;;;;;;;1.17;0.70;;;20.70;99.90;;;;;;5024363;28;20061;-72
2022/07/11 11:48:46;;;;;;;5.07;0.50;;;20.50;99.90;;;;;;5038075;28;20053;-73
2022/07/11 11:51:13;;;;;;;3.15;1.38;;;20.50;99.90;;;;;;5014928;28;20140;-72
2022/07/11 11:53:44;;;;;;;4.50;1.10;;;20.50;99.90;;;;;;5029208;28;20125;-73
2022/07/11 11:56:30;;;;;;;0.70;0.60;;;20.20;99.90;;;;;;5044934;28;20340;-72
2022/07/11 11:59:07;;;;;;;0.40;0.30;;;20.30;99.90;;;;;;5048588;28;20033;-72
2022/07/11 12:01:37;;;;;;;1.45;0.30;;;18.10;99.90;;;;;;5026317;28;20041;-73
2022/07/11 12:04:15;;;;;;;1.17;0.40;;;21.40;99.90;;;;;;5024956;28;20490;-71
2022/07/11 12:06:42;;;;;;;1.98;1.38;;;20.60;99.90;;;;;;5048863;28;20041;-70
2022/07/11 12:09:16;;;;;;;1.88;1.02;;;20.20;99.90;;;;;;5049448;28;20029;-70
2022/07/11 12:14:36;;;;;;;0.73;0.50;;;20.30;99.90;;;;;;5008515;28;20045;-71
2022/07/11 12:17:02;;;;;;;0.90;0.60;;;20.40;99.90;;;;;;5050922;28;20052;-71
2022/07/11 12:19:34;;;;;;;0.80;0.50;;;20.20;99.90;;;;;;5052941;28;20128;-71
2022/07/11 12:22:04;;;;;;;1.77;0.52;;;20.60;99.90;;;;;;5042823;28;20467;-72
2022/07/11 12:24:30;;;;;;;0.68;0.50;;;20.10;99.90;;;;;;5053654;28;20529;-71
2022/07/11 12:26:56;;;;;;;0.30;0.30;;;21.70;99.90;;;;;;5052851;28;20084;-71
2022/07/11 12:29:24;;;;;;;0.60;0.60;;;19.90;99.90;;;;;;5069475;28;20048;-72
2022/07/11 12:31:50;;;;;;;1.63;0.52;;;20.00;99.90;;;;;;5052191;28;20048;-71
2022/07/11 12:34:18;;;;;;;1.38;0.88;;;19.90;99.90;;;;;;5053850;28;20112;-71
2022/07/11 12:36:45;;;;;;;0.80;0.70;;;20.20;99.90;;;;;;5030647;28;20123;-69
2022/07/11 12:39:23;;;;;;;1.75;1.10;;;19.60;99.90;;;;;;5037712;28;20045;-72
2022/07/11 12:41:51;;;;;;;1.88;1.35;;;20.90;99.90;;;;;;5090027;22;20044;-70
2022/07/11 12:47:06;;;;;;;2.33;1.60;;;19.90;99.90;;;;;;5072292;28;20124;-70
2022/07/11 12:49:33;;;;;;;6.97;1.20;;;19.90;99.90;;;;;;5056057;28;20059;-72
2022/07/11 12:52:00;;;;;;;3.13;0.98;;;20.00;99.90;;;;;;5073732;28;20135;-69
2022/07/11 12:54:31;;;;;;;0.70;0.70;;;19.80;99.90;;;;;;5072140;28;20525;-70
2022/07/11 12:56:57;;;;;;;1.13;0.60;;;20.70;99.90;;;;;;5072569;28;20028;-69
2022/07/11 12:59:24;;;;;;;0.60;0.50;;;19.80;99.90;;;;;;5072387;28;20036;-69
2022/07/11 13:02:06;;;;;;;3.55;1.00;;;20.90;99.90;;;;;;5072152;28;20036;-69